Time;durP1;ratioP1;P1;durP2;ratioP2;P2;SDS_P1;SDS_P2;PMS_P1;PMS_P2;Temp;Humidity;BMP_temperature;BMP_pressure;BME280_temperature;BME280_humidity;BME280_pressure;Samples;Min_cycle;Max_cycle;Signal;HPM_P1;HPM_P2
2022/11/07 00:00:26;;;;;;;1.57;1.30;;;6.60;99.90;;;;;;5091600;28;20565;-48
2022/11/07 00:02:53;;;;;;;1.77;1.50;;;6.70;99.90;;;;;;5091551;28;20478;-45
2022/11/07 00:05:21;;;;;;;2.10;1.13;;;6.70;99.90;;;;;;5091979;28;20462;-46
2022/11/07 00:07:48;;;;;;;1.90;1.03;;;6.70;99.90;;;;;;5091725;28;20447;-46
2022/11/07 00:10:15;;;;;;;2.13;1.20;;;6.80;99.90;;;;;;5091418;28;20454;-48
2022/11/07 00:12:43;;;;;;;1.13;0.80;;;6.70;99.90;;;;;;5091864;28;20534;-46
2022/11/07 00:15:11;;;;;;;2.50;1.10;;;6.70;99.90;;;;;;5092571;28;20938;-47
2022/11/07 00:17:38;;;;;;;1.40;1.03;;;6.60;99.90;;;;;;5091793;28;20869;-47
2022/11/07 00:20:06;;;;;;;2.50;1.97;;;6.70;99.90;;;;;;5091537;28;20567;-46
2022/11/07 00:22:32;;;;;;;4.80;2.57;;;6.80;99.90;;;;;;5091249;28;20444;-47
2022/11/07 00:24:59;;;;;;;3.10;2.43;;;6.70;99.90;;;;;;5091428;28;20503;-47
2022/11/07 00:27:26;;;;;;;2.20;1.67;;;6.30;99.90;;;;;;5091627;28;20514;-48
2022/11/07 00:29:54;;;;;;;2.60;1.80;;;6.00;99.90;;;;;;5091486;28;20443;-46
2022/11/07 00:32:21;;;;;;;1.60;1.33;;;5.90;99.90;;;;;;5091015;28;20941;-47
2022/11/07 00:34:48;;;;;;;2.63;1.27;;;5.70;99.90;;;;;;5090137;28;20749;-46
2022/11/07 00:37:15;;;;;;;1.50;0.97;;;5.90;99.90;;;;;;5091371;28;20440;-46
2022/11/07 00:39:42;;;;;;;1.00;0.60;;;6.00;99.90;;;;;;5091116;28;20563;-46
2022/11/07 00:42:09;;;;;;;1.83;0.80;;;6.10;99.90;;;;;;5090824;28;20540;-46
2022/11/07 00:44:35;;;;;;;1.00;0.60;;;6.30;99.90;;;;;;5091140;28;20544;-46
2022/11/07 00:47:04;;;;;;;1.70;1.17;;;6.40;99.90;;;;;;5091201;28;20528;-46
2022/11/07 00:49:31;;;;;;;1.70;1.10;;;6.50;99.90;;;;;;5090959;28;20465;-47
2022/11/07 00:51:57;;;;;;;1.67;1.23;;;6.50;99.90;;;;;;5091273;28;20524;-48
2022/11/07 00:54:24;;;;;;;1.80;1.50;;;6.60;99.90;;;;;;5090976;28;20549;-47
2022/11/07 00:56:51;;;;;;;2.70;1.57;;;6.40;99.90;;;;;;5091086;28;20542;-46
2022/11/07 00:59:18;;;;;;;1.60;1.40;;;6.20;99.90;;;;;;5091046;28;21017;-47
2022/11/07 01:01:45;;;;;;;1.20;1.03;;;6.00;99.90;;;;;;5091103;28;20532;-48
2022/11/07 01:06:59;;;;;;;2.30;1.17;;;5.90;99.90;;;;;;5091027;28;20882;-48
2022/11/07 01:09:27;;;;;;;1.50;0.90;;;6.00;99.90;;;;;;5090913;28;20516;-46
2022/11/07 01:11:53;;;;;;;1.63;0.90;;;6.00;99.90;;;;;;5090931;28;20451;-46
2022/11/07 01:14:22;;;;;;;1.30;1.10;;;6.00;99.90;;;;;;5090582;28;20994;-46
2022/11/07 01:16:49;;;;;;;1.90;0.90;;;6.10;99.90;;;;;;5090812;28;20458;-46
2022/11/07 01:19:18;;;;;;;1.50;1.00;;;6.30;99.90;;;;;;5090772;28;20570;-48
2022/11/07 01:21:45;;;;;;;1.60;0.60;;;6.40;99.90;;;;;;5091029;28;20467;-46
2022/11/07 01:24:13;;;;;;;1.30;1.07;;;6.40;99.90;;;;;;5090535;28;21021;-46
2022/11/07 01:26:41;;;;;;;1.00;0.63;;;6.50;99.90;;;;;;5090864;28;20525;-47
2022/11/07 01:29:09;;;;;;;1.63;0.50;;;6.60;99.90;;;;;;5090164;28;20523;-46
2022/11/07 01:31:36;;;;;;;1.10;0.70;;;6.60;99.90;;;;;;5090944;28;20700;-48
2022/11/07 01:34:03;;;;;;;1.23;0.77;;;6.50;99.90;;;;;;5090263;28;20530;-46
2022/11/07 01:36:31;;;;;;;1.60;1.00;;;6.50;99.90;;;;;;5090701;28;20532;-46
2022/11/07 01:38:58;;;;;;;1.20;0.70;;;6.50;99.90;;;;;;5090720;28;20531;-49
2022/11/07 01:41:28;;;;;;;0.90;0.50;;;6.50;99.90;;;;;;5090610;28;20528;-46
2022/11/07 01:43:58;;;;;;;1.93;0.50;;;6.60;99.90;;;;;;5090520;28;20522;-48
2022/11/07 01:46:28;;;;;;;0.90;0.50;;;6.40;99.90;;;;;;5093932;28;21002;-47
2022/11/07 01:49:01;;;;;;;1.20;0.60;;;6.40;99.90;;;;;;5094344;28;20440;-47
2022/11/07 01:51:30;;;;;;;1.00;0.60;;;6.50;99.90;;;;;;5094324;28;20528;-46
2022/11/07 01:53:58;;;;;;;1.60;1.10;;;6.50;99.90;;;;;;5093847;28;20529;-46
2022/11/07 01:56:28;;;;;;;1.03;0.80;;;6.50;99.90;;;;;;5094391;28;20528;-47
2022/11/07 01:58:56;;;;;;;1.27;0.67;;;6.30;99.90;;;;;;5094225;28;20530;-46
2022/11/07 02:01:24;;;;;;;1.20;0.60;;;6.30;99.90;;;;;;5094166;28;20868;-46
2022/11/07 02:03:53;;;;;;;1.10;0.70;;;6.30;99.90;;;;;;5093546;28;20442;-46
2022/11/07 02:06:24;;;;;;;1.00;0.70;;;5.90;99.90;;;;;;5093953;28;20441;-46
2022/11/07 02:08:52;;;;;;;1.20;0.60;;;5.80;99.90;;;;;;5093896;28;20442;-46
2022/11/07 02:11:21;;;;;;;1.20;0.50;;;6.00;99.90;;;;;;5094024;28;20432;-46
2022/11/07 02:13:48;;;;;;;1.10;0.70;;;6.20;99.90;;;;;;5093618;28;20534;-46
2022/11/07 02:16:16;;;;;;;1.30;0.50;;;6.30;99.90;;;;;;5093501;28;20958;-47
2022/11/07 02:18:44;;;;;;;2.40;0.70;;;6.20;99.90;;;;;;5093658;28;20459;-49
2022/11/07 02:21:21;;;;;;;1.00;0.70;;;6.30;99.90;;;;;;5093906;28;20471;-46
2022/11/07 02:23:54;;;;;;;1.20;0.80;;;6.30;99.90;;;;;;5093411;28;20557;-46
2022/11/07 02:26:24;;;;;;;1.20;0.53;;;6.20;99.90;;;;;;5093399;28;20806;-46
2022/11/07 02:28:54;;;;;;;0.90;0.50;;;6.10;99.90;;;;;;5093089;28;20478;-46
2022/11/07 02:31:20;;;;;;;1.00;0.70;;;5.90;99.90;;;;;;5093581;28;20441;-47
2022/11/07 02:33:47;;;;;;;1.30;0.50;;;5.40;99.90;;;;;;5093304;28;20465;-48
2022/11/07 02:36:17;;;;;;;2.73;0.90;;;5.30;99.90;;;;;;5093430;28;20854;-49
2022/11/07 02:38:47;;;;;;;1.00;0.60;;;5.60;99.90;;;;;;5093259;28;20520;-49
2022/11/07 02:41:18;;;;;;;1.30;0.73;;;5.70;99.90;;;;;;5092990;28;20476;-48
2022/11/07 02:43:52;;;;;;;1.10;0.73;;;5.50;99.90;;;;;;5093152;28;20549;-51
2022/11/07 02:46:19;;;;;;;3.40;0.97;;;5.70;99.90;;;;;;5093374;28;20526;-48
2022/11/07 02:48:48;;;;;;;1.80;0.80;;;5.80;99.90;;;;;;5093021;28;20762;-49
2022/11/07 02:51:16;;;;;;;1.30;0.57;;;5.80;99.90;;;;;;5093169;28;21043;-49
2022/11/07 02:53:43;;;;;;;1.17;0.63;;;5.80;99.90;;;;;;5092663;28;20999;-48
2022/11/07 02:56:10;;;;;;;0.90;0.60;;;5.60;99.90;;;;;;5092241;28;20495;-49
2022/11/07 02:58:37;;;;;;;0.93;0.60;;;5.80;99.90;;;;;;5092890;28;20532;-48
2022/11/07 03:01:11;;;;;;;0.90;0.50;;;5.80;99.90;;;;;;5092920;28;20557;-51
2022/11/07 03:03:39;;;;;;;1.20;0.70;;;5.40;99.90;;;;;;5092690;28;20450;-48
2022/11/07 03:06:07;;;;;;;1.20;0.80;;;5.50;99.90;;;;;;5092799;28;20542;-50
2022/11/07 03:08:34;;;;;;;2.00;0.60;;;5.70;99.90;;;;;;5092417;28;20525;-44
2022/11/07 03:11:01;;;;;;;1.00;0.50;;;5.80;99.90;;;;;;5093037;28;20446;-48
2022/11/07 03:13:28;;;;;;;0.90;0.57;;;5.80;99.90;;;;;;5092479;28;20436;-48
2022/11/07 03:15:55;;;;;;;1.00;0.73;;;5.70;99.90;;;;;;5092573;28;20556;-50
2022/11/07 03:18:23;;;;;;;1.00;0.50;;;5.10;99.90;;;;;;5092719;28;20830;-48
2022/11/07 03:20:50;;;;;;;0.90;0.50;;;4.70;99.90;;;;;;5092282;28;20568;-48
2022/11/07 03:23:17;;;;;;;1.00;0.70;;;5.00;99.90;;;;;;5092199;28;20985;-49
2022/11/07 03:25:44;;;;;;;1.13;0.60;;;5.30;99.90;;;;;;5092556;28;20472;-48
2022/11/07 03:28:11;;;;;;;1.07;0.63;;;5.40;99.90;;;;;;5092007;28;20473;-49
2022/11/07 03:30:37;;;;;;;1.20;0.90;;;5.50;99.90;;;;;;5092531;28;20521;-48
2022/11/07 03:33:04;;;;;;;1.20;0.70;;;5.60;99.90;;;;;;5092314;28;20445;-48
2022/11/07 03:35:33;;;;;;;1.20;0.70;;;5.60;99.90;;;;;;5092093;28;20549;-48
2022/11/07 03:37:59;;;;;;;0.90;0.70;;;5.60;99.90;;;;;;5092181;28;21169;-48
2022/11/07 03:40:26;;;;;;;3.77;0.90;;;5.60;99.90;;;;;;5091982;28;20831;-49
2022/11/07 03:42:53;;;;;;;1.50;1.00;;;5.30;99.90;;;;;;5091763;28;20441;-48
2022/11/07 03:45:20;;;;;;;1.20;0.63;;;5.20;99.90;;;;;;5092002;28;20551;-51
2022/11/07 03:47:47;;;;;;;1.67;0.80;;;5.30;99.90;;;;;;5092182;28;20533;-49
2022/11/07 03:50:17;;;;;;;1.00;0.67;;;5.50;99.90;;;;;;5092017;28;20794;-50
2022/11/07 03:52:46;;;;;;;1.20;0.67;;;5.60;99.90;;;;;;5091966;28;20451;-49
2022/11/07 03:55:14;;;;;;;1.10;0.73;;;5.30;99.90;;;;;;5091688;28;20545;-49
2022/11/07 03:57:41;;;;;;;1.63;0.87;;;5.40;99.90;;;;;;5092018;28;20445;-51
2022/11/07 04:00:10;;;;;;;1.13;0.60;;;5.10;99.90;;;;;;5091778;28;20588;-48
2022/11/07 04:02:37;;;;;;;1.47;1.00;;;5.20;99.90;;;;;;5091973;28;20490;-49
2022/11/07 04:05:04;;;;;;;1.27;0.70;;;5.40;99.90;;;;;;5091529;28;20550;-49
2022/11/07 04:07:31;;;;;;;1.20;0.53;;;5.60;99.90;;;;;;5091597;28;20446;-49
2022/11/07 04:09:59;;;;;;;1.27;0.40;;;5.30;99.90;;;;;;5091816;28;20863;-49
2022/11/07 04:17:55;;;;;;;1.00;0.50;;;5.30;99.90;;;;;;5091793;28;20515;-49
2022/11/07 04:20:22;;;;;;;3.73;0.60;;;5.40;99.90;;;;;;5091385;28;20560;-48
2022/11/07 04:22:49;;;;;;;3.67;1.27;;;5.50;99.90;;;;;;5091606;28;20566;-49
2022/11/07 04:27:41;;;;;;;1.00;0.60;;;5.50;99.90;;;;;;5091142;28;20507;-48
2022/11/07 04:28:03;;;;;;;1.60;0.80;;;5.30;99.90;;;;;;5091307;28;20444;-48
2022/11/07 04:30:30;;;;;;;1.50;0.60;;;5.00;99.90;;;;;;5091479;28;20438;-49
2022/11/07 04:32:59;;;;;;;1.00;0.50;;;5.20;99.90;;;;;;5091062;28;20449;-48
2022/11/07 04:35:28;;;;;;;1.10;0.50;;;5.20;99.90;;;;;;5091584;28;20461;-49
2022/11/07 04:37:55;;;;;;;1.10;0.60;;;4.80;99.90;;;;;;5091227;28;20476;-49
2022/11/07 04:40:23;;;;;;;1.07;0.60;;;4.60;99.90;;;;;;5091058;28;20559;-50
2022/11/07 04:42:50;;;;;;;1.00;0.50;;;4.70;99.90;;;;;;5090735;28;20440;-50
2022/11/07 04:45:17;;;;;;;3.77;0.90;;;5.00;99.90;;;;;;5091032;28;20500;-48
2022/11/07 04:47:45;;;;;;;1.43;0.80;;;5.10;99.90;;;;;;5091385;28;20438;-50
2022/11/07 04:50:13;;;;;;;1.37;0.80;;;5.10;99.90;;;;;;5090937;28;20789;-49
2022/11/07 04:52:40;;;;;;;1.87;1.00;;;5.10;99.90;;;;;;5090795;28;20965;-48
2022/11/07 04:55:09;;;;;;;1.43;1.23;;;5.00;99.90;;;;;;5090722;28;20495;-48
2022/11/07 04:57:38;;;;;;;3.30;3.00;;;4.90;99.90;;;;;;5091228;28;20462;-48
2022/11/07 05:00:06;;;;;;;2.53;2.40;;;4.90;99.90;;;;;;5091126;28;20534;-47
2022/11/07 05:02:33;;;;;;;2.50;2.30;;;4.80;99.90;;;;;;5091037;28;20521;-48
2022/11/07 05:04:59;;;;;;;1.10;0.93;;;5.00;99.90;;;;;;5090868;28;20457;-49
2022/11/07 05:07:26;;;;;;;3.37;2.80;;;4.80;99.90;;;;;;5090887;28;20447;-48
2022/11/07 05:09:53;;;;;;;3.27;2.97;;;4.80;99.90;;;;;;5091116;28;20448;-48
2022/11/07 05:12:20;;;;;;;2.30;1.90;;;4.90;99.90;;;;;;5090876;28;20814;-48
2022/11/07 05:14:48;;;;;;;4.17;3.77;;;5.00;99.90;;;;;;5090565;28;20474;-48
2022/11/07 05:17:16;;;;;;;6.53;5.90;;;5.00;99.90;;;;;;5090901;28;20450;-48
2022/11/07 05:19:43;;;;;;;3.93;3.53;;;5.20;99.90;;;;;;5091979;28;20476;-48
2022/11/07 05:24:54;;;;;;;2.23;1.60;;;4.50;99.90;;;;;;5094579;28;20443;-51
2022/11/07 05:27:22;;;;;;;1.13;0.87;;;4.20;99.90;;;;;;5094664;28;20841;-48
2022/11/07 05:29:50;;;;;;;2.30;2.10;;;4.10;99.90;;;;;;5094100;28;20557;-50
2022/11/07 05:32:17;;;;;;;5.27;4.87;;;4.20;99.90;;;;;;5094832;28;20479;-49
2022/11/07 05:34:44;;;;;;;3.33;2.80;;;4.60;99.90;;;;;;5094289;28;20474;-48
2022/11/07 05:37:13;;;;;;;3.60;2.13;;;4.80;99.90;;;;;;5094628;28;20444;-50
2022/11/07 05:39:40;;;;;;;3.33;2.20;;;4.80;99.90;;;;;;5094573;28;20441;-50
2022/11/07 05:42:07;;;;;;;2.30;1.77;;;4.60;99.90;;;;;;5094252;28;20558;-48
2022/11/07 05:44:34;;;;;;;3.10;2.30;;;4.60;99.90;;;;;;5094119;28;20989;-50
2022/11/07 05:47:02;;;;;;;3.67;2.70;;;3.80;99.90;;;;;;5094723;28;20972;-48
2022/11/07 05:49:29;;;;;;;3.20;2.90;;;3.50;99.90;;;;;;5094222;28;20440;-48
2022/11/07 05:51:57;;;;;;;3.13;2.37;;;3.30;99.90;;;;;;5094579;28;20527;-49
2022/11/07 05:54:26;;;;;;;3.10;2.67;;;3.50;99.90;;;;;;5094231;28;20513;-49
2022/11/07 05:56:56;;;;;;;2.40;1.90;;;3.80;99.90;;;;;;5093894;28;20447;-49
2022/11/07 05:59:23;;;;;;;2.83;2.07;;;4.10;99.90;;;;;;5094135;28;20442;-50
2022/11/07 06:01:50;;;;;;;3.60;1.33;;;4.40;99.90;;;;;;5094021;28;21083;-49
2022/11/07 06:04:18;;;;;;;2.57;1.20;;;4.50;99.90;;;;;;5093695;28;20539;-51
2022/11/07 06:06:45;;;;;;;1.70;1.30;;;4.70;99.90;;;;;;5093661;28;20958;-50
2022/11/07 06:09:12;;;;;;;3.53;1.83;;;4.30;99.90;;;;;;5094057;28;20531;-48
2022/11/07 06:11:39;;;;;;;2.87;1.80;;;3.80;99.90;;;;;;5093969;28;20471;-49
2022/11/07 06:14:06;;;;;;;1.90;1.40;;;3.70;99.90;;;;;;5093479;28;20480;-51
2022/11/07 06:16:32;;;;;;;2.33;2.13;;;3.70;99.90;;;;;;5094995;28;20440;-49
2022/11/07 06:18:59;;;;;;;2.33;1.70;;;3.80;99.90;;;;;;5094292;28;20556;-48
2022/11/07 06:21:28;;;;;;;2.60;1.60;;;3.90;99.90;;;;;;5093821;28;20475;-50
2022/11/07 06:23:54;;;;;;;2.37;2.17;;;3.90;99.90;;;;;;5093565;28;20527;-48
2022/11/07 06:26:21;;;;;;;2.13;1.30;;;4.10;99.90;;;;;;5093613;28;20527;-48
2022/11/07 06:28:48;;;;;;;6.20;3.53;;;3.80;99.90;;;;;;5093505;28;20539;-51
2022/11/07 06:31:16;;;;;;;6.23;5.60;;;4.00;99.90;;;;;;5093496;28;20440;-48
2022/11/07 06:33:43;;;;;;;5.40;4.83;;;3.20;99.90;;;;;;5093182;28;20523;-50
2022/11/07 06:36:11;;;;;;;5.50;4.83;;;2.90;99.90;;;;;;5093249;28;20920;-48
2022/11/07 06:38:40;;;;;;;5.90;4.73;;;2.90;99.90;;;;;;5093068;28;20467;-49
2022/11/07 06:41:09;;;;;;;6.60;5.10;;;3.10;99.90;;;;;;5093207;28;20569;-48
2022/11/07 06:43:37;;;;;;;5.20;4.70;;;3.20;99.90;;;;;;5093067;28;20866;-48
2022/11/07 06:46:06;;;;;;;5.33;4.77;;;3.50;99.90;;;;;;5093255;28;20547;-49
2022/11/07 06:48:34;;;;;;;3.70;3.13;;;3.60;99.90;;;;;;5093111;28;20879;-48
2022/11/07 06:51:03;;;;;;;2.37;2.17;;;3.90;99.90;;;;;;5092849;28;20467;-48
2022/11/07 06:53:30;;;;;;;2.13;1.93;;;4.20;99.90;;;;;;5092523;28;20483;-48
2022/11/07 06:56:00;;;;;;;1.90;1.70;;;4.40;99.90;;;;;;5092963;28;20547;-48
2022/11/07 06:58:27;;;;;;;2.10;1.90;;;4.50;99.90;;;;;;5093207;28;20487;-48
2022/11/07 07:00:57;;;;;;;2.23;1.97;;;4.40;99.90;;;;;;5093083;28;20472;-48
2022/11/07 07:03:24;;;;;;;8.80;6.00;;;4.50;99.90;;;;;;5092764;28;20446;-47
2022/11/07 07:05:51;;;;;;;10.53;5.77;;;4.40;99.90;;;;;;5092880;28;20924;-48
2022/11/07 07:08:18;;;;;;;6.43;5.50;;;4.00;99.90;;;;;;5092848;28;20950;-48
2022/11/07 07:10:46;;;;;;;4.93;4.47;;;4.10;99.90;;;;;;5092531;28;20523;-49
2022/11/07 07:13:14;;;;;;;3.80;2.83;;;4.40;99.90;;;;;;5092504;28;20971;-48
2022/11/07 07:15:41;;;;;;;3.60;2.93;;;4.50;99.90;;;;;;5092632;28;20558;-49
2022/11/07 07:18:08;;;;;;;2.67;2.47;;;4.60;99.90;;;;;;5092669;28;20444;-48
2022/11/07 07:20:35;;;;;;;3.03;2.73;;;4.60;99.90;;;;;;5092608;28;20536;-48
2022/11/07 07:23:02;;;;;;;7.17;3.43;;;4.70;99.90;;;;;;5093964;28;20548;-51
2022/11/07 07:25:29;;;;;;;10.13;6.80;;;4.60;99.90;;;;;;5092898;28;20511;-51
2022/11/07 07:27:55;;;;;;;7.30;5.03;;;4.60;99.90;;;;;;5092763;28;20469;-47
2022/11/07 07:30:24;;;;;;;4.40;3.57;;;4.10;99.90;;;;;;5092451;28;20536;-48
2022/11/07 07:32:51;;;;;;;2.80;2.43;;;3.70;99.90;;;;;;5092685;28;20523;-48
2022/11/07 07:35:18;;;;;;;2.17;1.97;;;3.60;99.90;;;;;;5092361;28;20551;-47
2022/11/07 07:37:48;;;;;;;4.97;3.47;;;3.70;99.90;;;;;;5092572;28;20456;-47
2022/11/07 07:40:15;;;;;;;7.00;5.87;;;4.10;99.90;;;;;;5092161;28;20531;-48
2022/11/07 07:42:43;;;;;;;9.40;6.20;;;4.20;99.90;;;;;;5091217;28;21023;-47
2022/11/07 07:45:11;;;;;;;6.47;5.10;;;4.00;99.90;;;;;;5092047;28;20486;-48
2022/11/07 07:47:39;;;;;;;5.03;4.40;;;3.90;99.90;;;;;;5091865;28;20440;-48
2022/11/07 07:50:08;;;;;;;5.93;4.13;;;3.90;99.90;;;;;;5092240;28;20534;-47
2022/11/07 07:52:35;;;;;;;3.47;2.50;;;3.90;99.90;;;;;;5091927;28;20513;-48
2022/11/07 07:55:02;;;;;;;2.03;1.77;;;3.70;99.90;;;;;;5092013;28;20539;-50
2022/11/07 07:57:28;;;;;;;3.13;2.07;;;3.60;99.90;;;;;;5091817;28;20526;-47
2022/11/07 07:59:55;;;;;;;2.17;1.97;;;3.60;99.90;;;;;;5091684;28;20535;-46
2022/11/07 08:02:22;;;;;;;3.37;1.07;;;3.70;99.90;;;;;;5091830;28;20591;-49
2022/11/07 08:04:50;;;;;;;2.67;2.37;;;4.00;99.90;;;;;;5091498;28;20540;-47
2022/11/07 08:07:17;;;;;;;4.13;3.20;;;4.30;99.90;;;;;;5091830;28;20531;-47
2022/11/07 08:09:44;;;;;;;5.83;4.40;;;4.50;99.90;;;;;;5091718;28;20636;-46
2022/11/07 08:12:11;;;;;;;4.30;3.80;;;4.60;99.90;;;;;;5091516;28;20726;-49
2022/11/07 08:14:38;;;;;;;5.83;5.03;;;4.60;99.90;;;;;;5091496;28;20565;-48
2022/11/07 08:17:04;;;;;;;8.43;5.00;;;4.70;99.90;;;;;;5091804;28;20524;-47
2022/11/07 08:19:32;;;;;;;3.80;3.50;;;4.80;99.90;;;;;;5091706;28;20450;-48
2022/11/07 08:22:00;;;;;;;3.33;3.00;;;4.40;99.90;;;;;;5091742;28;20474;-46
2022/11/07 08:24:27;;;;;;;2.60;2.20;;;4.00;99.90;;;;;;5090899;28;20539;-47
2022/11/07 08:26:54;;;;;;;4.60;2.10;;;4.00;99.90;;;;;;5091844;28;20442;-48
2022/11/07 08:29:21;;;;;;;1.87;1.20;;;4.30;99.90;;;;;;5090794;28;20539;-47
2022/11/07 08:31:49;;;;;;;2.10;1.50;;;4.40;99.90;;;;;;5091201;28;20524;-47
2022/11/07 08:34:16;;;;;;;3.80;2.77;;;4.70;99.90;;;;;;5091015;28;20467;-47
2022/11/07 08:36:43;;;;;;;3.97;2.63;;;4.80;99.90;;;;;;5091182;28;20437;-47
2022/11/07 08:39:12;;;;;;;4.20;3.80;;;4.80;99.90;;;;;;5091487;28;20533;-47
2022/11/07 08:41:38;;;;;;;4.20;2.60;;;4.90;99.90;;;;;;5090943;28;20562;-49
2022/11/07 08:44:07;;;;;;;3.80;3.13;;;5.00;99.90;;;;;;5091221;28;20485;-46
2022/11/07 08:46:34;;;;;;;5.63;2.13;;;5.00;99.90;;;;;;5091178;28;20961;-46
2022/11/07 08:49:01;;;;;;;1.53;1.30;;;5.00;99.90;;;;;;5091686;28;20437;-46
2022/11/07 08:51:27;;;;;;;1.57;1.27;;;5.10;99.90;;;;;;5090887;28;20439;-46
2022/11/07 08:53:54;;;;;;;2.37;1.33;;;5.20;99.90;;;;;;5090565;28;20573;-47
2022/11/07 08:56:23;;;;;;;1.87;1.50;;;5.30;99.90;;;;;;5094565;28;20953;-48
2022/11/07 08:58:50;;;;;;;2.03;1.30;;;5.40;99.90;;;;;;5095337;28;20529;-47
2022/11/07 09:01:16;;;;;;;1.20;0.80;;;5.40;99.90;;;;;;5095049;28;20527;-46
2022/11/07 09:03:43;;;;;;;1.60;0.90;;;5.40;99.90;;;;;;5094960;28;20528;-47
2022/11/07 09:06:11;;;;;;;1.40;1.00;;;5.50;99.90;;;;;;5095054;28;20829;-47
2022/11/07 09:08:39;;;;;;;1.50;1.27;;;5.50;99.90;;;;;;5095110;28;20470;-47
2022/11/07 09:11:07;;;;;;;1.50;1.07;;;5.50;99.90;;;;;;5094988;28;20450;-47
2022/11/07 09:13:35;;;;;;;1.40;1.00;;;5.60;99.90;;;;;;5095145;28;20999;-47
2022/11/07 09:16:04;;;;;;;1.30;1.00;;;5.60;99.90;;;;;;5095052;28;20555;-47
2022/11/07 09:18:31;;;;;;;1.67;1.03;;;5.60;99.90;;;;;;5095023;28;20526;-49
2022/11/07 09:20:58;;;;;;;1.40;1.03;;;5.60;99.90;;;;;;5095009;28;20538;-47
2022/11/07 09:23:25;;;;;;;2.97;1.13;;;5.80;99.90;;;;;;5094874;28;20479;-47
2022/11/07 09:25:52;;;;;;;3.00;1.90;;;5.90;99.90;;;;;;5094868;28;20552;-46
2022/11/07 09:28:19;;;;;;;2.87;2.00;;;6.00;99.90;;;;;;5094262;28;20536;-47
2022/11/07 09:30:52;;;;;;;13.23;2.90;;;6.10;99.90;;;;;;5094332;28;20978;-47
2022/11/07 09:33:19;;;;;;;2.20;1.10;;;6.10;99.90;;;;;;5094592;28;20433;-45
2022/11/07 09:35:46;;;;;;;2.13;1.30;;;6.20;99.90;;;;;;5094631;28;20988;-45
2022/11/07 09:38:13;;;;;;;2.17;1.17;;;6.30;99.90;;;;;;5094883;28;20449;-46
2022/11/07 09:40:47;;;;;;;1.50;1.20;;;6.40;99.90;;;;;;5094515;28;20897;-48
2022/11/07 09:43:32;;;;;;;2.23;1.57;;;6.60;99.90;;;;;;5094025;28;20471;-45
2022/11/07 09:46:09;;;;;;;3.27;1.20;;;6.70;99.90;;;;;;5093779;28;20478;-45
2022/11/07 09:48:44;;;;;;;13.17;4.53;;;6.90;99.90;;;;;;5094671;28;20529;-46
2022/11/07 09:51:14;;;;;;;2.60;1.23;;;7.20;99.90;;;;;;5094305;28;20434;-46
2022/11/07 09:53:45;;;;;;;2.37;1.47;;;7.30;99.90;;;;;;5093856;28;20443;-46
2022/11/07 09:56:13;;;;;;;3.10;1.10;;;7.20;99.90;;;;;;5094589;28;20478;-46
2022/11/07 09:58:43;;;;;;;2.60;1.80;;;7.30;99.90;;;;;;5094050;28;20435;-46
2022/11/07 10:01:16;;;;;;;1.50;1.10;;;7.50;99.90;;;;;;5094115;28;21121;-46
2022/11/07 10:03:44;;;;;;;2.10;1.47;;;7.50;99.90;;;;;;5093839;28;20430;-46
2022/11/07 10:06:20;;;;;;;1.97;1.20;;;7.60;99.90;;;;;;5093580;28;20456;-46
2022/11/07 10:08:53;;;;;;;1.73;1.17;;;7.60;99.90;;;;;;5093909;28;20439;-46
2022/11/07 10:11:32;;;;;;;1.83;1.30;;;7.70;99.90;;;;;;5093953;28;20912;-47
2022/11/07 10:14:14;;;;;;;2.00;1.47;;;7.70;99.90;;;;;;5093636;28;20443;-46
2022/11/07 10:16:56;;;;;;;1.83;1.30;;;7.70;99.90;;;;;;5093698;28;20523;-47
2022/11/07 10:19:39;;;;;;;1.67;1.30;;;7.80;99.90;;;;;;5093756;28;20449;-46
2022/11/07 10:22:17;;;;;;;1.93;1.63;;;7.90;99.90;;;;;;5093633;28;20869;-47
2022/11/07 10:25:18;;;;;;;5.80;1.70;;;7.90;99.90;;;;;;5093378;28;20463;-46
2022/11/07 10:27:50;;;;;;;2.80;1.10;;;7.90;99.90;;;;;;5057116;28;21152;-46
2022/11/07 10:30:20;;;;;;;4.30;1.63;;;7.90;99.90;;;;;;5093046;28;20436;-48
2022/11/07 10:32:57;;;;;;;4.57;1.33;;;7.90;99.90;;;;;;5093639;28;20526;-47
2022/11/07 10:35:28;;;;;;;3.60;1.70;;;8.00;99.90;;;;;;5093483;28;20526;-49
2022/11/07 10:37:57;;;;;;;3.80;1.60;;;8.10;99.90;;;;;;5093706;28;20450;-47
2022/11/07 10:40:27;;;;;;;5.40;2.10;;;8.10;99.90;;;;;;5093491;28;20448;-49
2022/11/07 10:42:55;;;;;;;4.27;1.53;;;8.20;99.90;;;;;;5093325;28;20993;-49
2022/11/07 10:45:23;;;;;;;5.67;1.63;;;8.30;99.90;;;;;;5093653;28;20866;-49
2022/11/07 10:48:01;;;;;;;3.13;1.87;;;8.40;99.90;;;;;;5093559;28;20859;-47
2022/11/07 10:50:28;;;;;;;4.60;2.00;;;8.40;99.90;;;;;;5093394;28;20467;-47
2022/11/07 10:52:57;;;;;;;3.87;1.30;;;8.50;99.90;;;;;;5093262;28;20483;-50
2022/11/07 10:55:25;;;;;;;2.83;1.37;;;8.70;99.90;;;;;;5093048;28;20462;-47
2022/11/07 10:57:56;;;;;;;1.60;1.20;;;8.70;99.90;;;;;;5093214;28;20530;-47
2022/11/07 11:00:25;;;;;;;1.63;1.40;;;8.70;99.90;;;;;;5093141;28;20975;-48
2022/11/07 11:02:55;;;;;;;1.50;1.10;;;8.70;99.90;;;;;;5092891;28;20573;-44
2022/11/07 11:05:26;;;;;;;2.83;1.40;;;8.60;99.90;;;;;;5092799;28;20464;-49
2022/11/07 11:07:56;;;;;;;3.23;1.77;;;8.60;99.90;;;;;;5093177;28;20486;-47
2022/11/07 11:10:26;;;;;;;2.50;1.47;;;8.70;99.90;;;;;;5084090;28;20456;-47
2022/11/07 11:12:53;;;;;;;5.43;1.50;;;8.80;99.90;;;;;;5089798;28;20463;-45
2022/11/07 11:15:22;;;;;;;1.93;1.30;;;8.80;99.90;;;;;;5092692;28;20558;-45
2022/11/07 11:17:59;;;;;;;2.70;1.00;;;8.80;99.90;;;;;;5091775;28;20534;-47
2022/11/07 11:20:35;;;;;;;1.93;0.87;;;8.80;99.90;;;;;;5093118;28;20466;-48
2022/11/07 11:23:04;;;;;;;1.47;1.10;;;8.80;99.90;;;;;;5092169;28;21058;-48
2022/11/07 11:25:31;;;;;;;3.23;1.37;;;8.80;99.90;;;;;;5092643;28;20463;-47
2022/11/07 11:28:04;;;;;;;2.47;1.43;;;8.90;99.90;;;;;;5092754;28;20440;-48
2022/11/07 11:30:34;;;;;;;1.93;1.20;;;9.10;99.90;;;;;;5091969;28;20526;-48
2022/11/07 11:33:06;;;;;;;2.70;1.30;;;9.00;99.90;;;;;;5092290;28;20523;-47
2022/11/07 11:35:37;;;;;;;1.50;1.10;;;9.20;99.90;;;;;;5092235;28;20546;-47
2022/11/07 11:38:11;;;;;;;1.67;1.17;;;9.30;99.90;;;;;;5092355;28;20991;-47
2022/11/07 11:40:40;;;;;;;1.30;1.10;;;9.30;99.90;;;;;;5091963;28;20448;-48
2022/11/07 11:43:17;;;;;;;1.50;1.07;;;9.20;99.90;;;;;;5091663;28;20575;-47
2022/11/07 11:45:54;;;;;;;1.87;1.10;;;9.10;99.90;;;;;;5092648;28;20468;-50
2022/11/07 11:48:25;;;;;;;1.70;1.30;;;9.20;99.90;;;;;;5092203;28;20500;-48
2022/11/07 11:50:59;;;;;;;1.40;1.20;;;9.30;99.90;;;;;;5092297;28;20549;-47
2022/11/07 11:53:27;;;;;;;1.93;1.53;;;9.40;99.90;;;;;;5091859;28;20526;-47
2022/11/07 11:56:25;;;;;;;1.87;1.10;;;9.40;99.90;;;;;;5091373;28;20459;-49
2022/11/07 11:59:06;;;;;;;2.37;1.30;;;9.20;99.90;;;;;;5092068;28;20436;-47
2022/11/07 12:01:41;;;;;;;2.17;1.20;;;9.40;99.90;;;;;;5091985;28;21128;-47
2022/11/07 12:04:32;;;;;;;1.30;0.90;;;9.30;99.90;;;;;;5091545;28;20481;-48
2022/11/07 12:07:10;;;;;;;2.00;1.90;;;9.40;99.90;;;;;;5092132;28;20439;-49
2022/11/07 12:09:43;;;;;;;3.27;1.80;;;9.60;99.90;;;;;;5090684;28;20956;-48
2022/11/07 12:12:24;;;;;;;1.80;1.33;;;9.60;99.90;;;;;;5091781;28;20544;-49
2022/11/07 12:15:11;;;;;;;2.20;1.37;;;9.50;99.90;;;;;;5092787;28;20554;-47
2022/11/07 12:17:44;;;;;;;1.30;1.10;;;9.50;99.90;;;;;;5091601;28;21026;-47
2022/11/07 12:20:19;;;;;;;1.60;1.40;;;9.50;99.90;;;;;;5091593;28;21037;-47
2022/11/07 12:23:06;;;;;;;1.77;1.50;;;9.40;99.90;;;;;;5091875;28;20562;-50
2022/11/07 12:25:37;;;;;;;1.43;1.03;;;9.50;99.90;;;;;;5091382;28;20466;-48
2022/11/07 12:28:28;;;;;;;2.47;1.40;;;9.70;99.90;;;;;;5091284;28;20470;-47
2022/11/07 12:31:05;;;;;;;2.00;1.23;;;9.60;99.90;;;;;;5091622;28;20440;-48
2022/11/07 12:33:40;;;;;;;2.53;1.67;;;9.50;99.90;;;;;;5091232;28;20526;-47
2022/11/07 12:36:14;;;;;;;3.00;1.30;;;9.60;99.90;;;;;;5091661;28;20456;-47
2022/11/07 12:39:07;;;;;;;2.90;1.80;;;9.80;99.90;;;;;;5091324;28;20527;-48
2022/11/07 12:41:44;;;;;;;3.23;1.60;;;9.80;99.90;;;;;;5091397;28;20436;-47
2022/11/07 12:44:34;;;;;;;2.27;1.70;;;9.80;99.90;;;;;;5091113;28;20566;-47
2022/11/07 12:47:05;;;;;;;2.43;1.30;;;9.80;99.90;;;;;;5091590;28;20440;-48
2022/11/07 12:49:53;;;;;;;1.83;1.50;;;9.80;99.90;;;;;;5091264;28;20443;-47
2022/11/07 12:52:38;;;;;;;4.57;1.67;;;9.90;99.90;;;;;;5091735;28;20440;-49
2022/11/07 12:55:18;;;;;;;4.00;2.20;;;10.00;99.90;;;;;;5090817;28;20463;-48
2022/11/07 12:57:47;;;;;;;1.77;1.47;;;10.10;99.90;;;;;;5091456;28;20534;-47
2022/11/07 13:00:19;;;;;;;3.67;1.57;;;10.20;99.90;;;;;;5091228;28;20530;-48
2022/11/07 13:02:57;;;;;;;2.90;1.50;;;10.20;99.90;;;;;;5091001;28;20562;-49
2022/11/07 13:05:37;;;;;;;2.27;1.50;;;10.10;99.90;;;;;;5091099;28;20548;-48
2022/11/07 13:08:10;;;;;;;8.53;4.37;;;10.10;99.90;;;;;;5091055;28;20534;-47
2022/11/07 13:10:46;;;;;;;11.87;7.03;;;10.40;99.90;;;;;;5091395;28;20815;-51
2022/11/07 13:13:19;;;;;;;7.60;4.57;;;10.50;99.90;;;;;;5090691;28;20954;-50
2022/11/07 13:15:46;;;;;;;10.10;2.83;;;10.50;99.90;;;;;;5090982;28;20558;-47
2022/11/07 13:18:20;;;;;;;2.93;2.00;;;10.50;99.90;;;;;;5090977;28;20440;-48